Time;durP1;ratioP1;P1;durP2;ratioP2;P2;SDS_P1;SDS_P2;PMS_P1;PMS_P2;Temp;Humidity;BMP_temperature;BMP_pressure;BME280_temperature;BME280_humidity;BME280_pressure;Samples;Min_cycle;Max_cycle;Signal;HPM_P1;HPM_P2
2022/11/26 00:01:21;;;;;;;41.68;23.57;;;;;;;10.99;84.98;99651.98;4091225;85;28488;-91
2022/11/26 00:07:25;;;;;;;46.30;25.17;;;;;;;10.86;85.10;99650.20;4071282;85;28553;-92
2022/11/26 00:13:30;;;;;;;42.85;24.00;;;;;;;10.84;85.85;99648.26;4086103;85;28481;-90
2022/11/26 00:19:31;;;;;;;43.83;24.45;;;;;;;10.86;85.52;99654.77;4100034;85;28528;-88
2022/11/26 00:25:40;;;;;;;41.25;23.55;;;;;;;10.83;85.29;99658.72;4078910;85;28563;-88
2022/11/26 00:31:42;;;;;;;43.23;23.83;;;;;;;10.86;84.69;99659.62;4095547;85;28534;-87
2022/11/26 00:37:57;;;;;;;43.63;24.72;;;;;;;10.76;84.51;99667.88;4096198;85;28492;-86
2022/11/26 00:43:59;;;;;;;42.95;24.70;;;;;;;10.71;84.86;99674.71;4103709;85;28561;-85
2022/11/26 00:50:00;;;;;;;45.75;25.25;;;;;;;10.59;85.24;99673.76;4103419;85;28476;-86
2022/11/26 00:56:02;;;;;;;51.37;26.27;;;;;;;10.50;85.78;99677.73;4095846;85;28508;-85
2022/11/26 01:02:03;;;;;;;39.88;22.93;;;;;;;10.44;87.20;99681.59;4098579;85;28494;-85
2022/11/26 01:08:33;;;;;;;42.38;24.60;;;;;;;10.63;85.24;99679.53;4103889;85;28538;-84
2022/11/26 01:14:35;;;;;;;40.03;22.65;;;;;;;10.20;86.61;99691.17;4100149;85;28793;-84
2022/11/26 01:20:36;;;;;;;41.35;23.57;;;;;;;10.25;86.34;99691.88;4037982;86;28649;-85
2022/11/26 01:26:40;;;;;;;43.90;24.80;;;;;;;10.13;86.95;99694.39;4047663;86;28555;-86
2022/11/26 01:32:42;;;;;;;41.55;24.60;;;;;;;10.16;87.70;99695.34;4032359;86;28522;-84
2022/11/26 01:38:43;;;;;;;44.93;24.25;;;;;;;10.16;86.70;99704.20;4066530;85;28515;-86
2022/11/26 01:44:44;;;;;;;47.23;24.75;;;;;;;10.05;88.80;99704.86;3993548;88;28505;-85
2022/11/26 01:51:03;;;;;;;39.92;23.10;;;;;;;10.12;88.25;99704.84;4020049;88;28584;-87
2022/11/26 01:57:15;;;;;;;43.13;24.43;;;;;;;10.29;86.93;99708.72;3941341;88;28484;-87
2022/11/26 02:03:19;;;;;;;43.65;23.98;;;;;;;10.34;87.54;99717.48;3966152;88;28565;-87
2022/11/26 02:09:22;;;;;;;43.33;24.60;;;;;;;10.36;87.02;99721.28;3990613;88;28538;-86
2022/11/26 02:15:28;;;;;;;49.05;26.17;;;;;;;10.29;86.39;99716.78;4024726;88;28570;-86
2022/11/26 02:21:33;;;;;;;41.77;23.22;;;;;;;10.25;87.22;99720.91;4005888;88;28598;-87
2022/11/26 02:28:04;;;;;;;46.53;25.17;;;;;;;10.38;85.91;99717.89;3955464;88;28496;-88
2022/11/26 02:34:44;;;;;;;40.15;22.48;;;;;;;10.45;86.25;99722.73;3976009;88;28529;-89
2022/11/26 02:40:49;;;;;;;38.85;21.87;;;;;;;10.37;86.33;99724.31;4028401;86;28568;-88
2022/11/26 02:47:00;;;;;;;43.60;22.87;;;;;;;10.25;86.77;99724.94;4072916;86;28595;-88
2022/11/26 02:53:03;;;;;;;45.35;23.67;;;;;;;10.26;86.72;99727.13;4050008;86;28513;-89
2022/11/26 02:59:04;;;;;;;45.88;23.02;;;;;;;10.27;86.94;99733.64;4033197;86;28509;-89
2022/11/26 03:05:07;;;;;;;42.40;23.30;;;;;;;10.18;87.56;99731.69;4037062;86;28523;-89
2022/11/26 03:11:09;;;;;;;43.73;23.25;;;;;;;10.21;87.90;99733.13;3938820;88;28557;-89
2022/11/26 03:17:10;;;;;;;38.42;21.68;;;;;;;10.22;87.41;99738.81;3969768;88;28489;-85
2022/11/26 03:23:12;;;;;;;38.53;20.72;;;;;;;10.24;87.15;99735.92;3971176;88;28551;-83
2022/11/26 03:29:13;;;;;;;38.33;20.60;;;;;;;10.26;87.11;99745.44;3967904;88;28567;-84
2022/11/26 03:35:14;;;;;;;36.45;20.40;;;;;;;10.28;86.77;99735.80;3969091;88;28530;-84
2022/11/26 03:41:16;;;;;;;38.33;20.80;;;;;;;10.20;87.12;99742.23;4024571;86;28514;-86
2022/11/26 03:47:17;;;;;;;35.00;20.25;;;;;;;10.14;87.58;99749.28;3965472;88;28512;-87
2022/11/26 03:53:19;;;;;;;34.63;19.75;;;;;;;10.18;87.78;99745.66;3978088;88;28526;-86
2022/11/26 03:59:20;;;;;;;33.13;18.95;;;;;;;10.09;87.92;99744.23;3966938;88;28523;-84
2022/11/26 04:05:21;;;;;;;34.30;19.95;;;;;;;10.04;87.56;99751.05;3979514;88;28561;-84
2022/11/26 04:11:23;;;;;;;32.63;19.25;;;;;;;9.93;87.95;99748.19;3981591;88;28494;-83
2022/11/26 04:17:24;;;;;;;39.70;21.00;;;;;;;9.81;87.95;99758.23;4001544;87;28589;-83
2022/11/26 04:23:25;;;;;;;43.55;23.70;;;;;;;9.52;89.49;99764.33;4015292;87;28515;-84
2022/11/26 04:29:27;;;;;;;42.67;22.75;;;;;;;9.81;88.82;99763.60;4028184;87;28521;-85
2022/11/26 04:35:28;;;;;;;51.20;27.35;;;;;;;9.69;88.43;99774.13;4015024;88;28542;-84
2022/11/26 04:41:30;;;;;;;48.98;26.00;;;;;;;9.89;87.79;99769.27;4024351;86;28540;-88
2022/11/26 04:47:32;;;;;;;52.73;25.27;;;;;;;9.73;87.86;99769.98;4051984;86;28567;-83
2022/11/26 04:53:33;;;;;;;47.78;23.18;;;;;;;9.51;88.69;99775.27;4065414;87;28487;-86
2022/11/26 04:59:34;;;;;;;48.28;25.30;;;;;;;9.19;90.14;99794.11;4058560;86;28491;-86
2022/11/26 05:05:37;;;;;;;42.90;21.60;;;;;;;9.15;91.01;99794.22;4059843;87;28507;-87
2022/11/26 05:11:38;;;;;;;44.83;22.80;;;;;;;9.09;89.90;99803.06;4047772;86;28495;-86
2022/11/26 05:17:40;;;;;;;47.75;22.98;;;;;;;9.15;89.82;99809.48;4052926;86;28562;-85
2022/11/26 05:23:42;;;;;;;38.45;20.82;;;;;;;9.17;88.81;99808.25;4064907;86;28542;-84
2022/11/26 05:29:43;;;;;;;41.28;21.45;;;;;;;8.92;88.43;99822.22;4059871;85;28479;-84
2022/11/26 05:35:45;;;;;;;38.63;20.60;;;;;;;8.69;89.06;99825.71;4038904;86;28538;-84
2022/11/26 05:41:49;;;;;;;41.13;21.65;;;;;;;8.73;89.40;99828.33;4054214;86;28526;-84
2022/11/26 05:47:51;;;;;;;39.45;22.45;;;;;;;8.77;89.80;99836.27;4052302;86;28509;-84
2022/11/26 05:53:52;;;;;;;40.03;22.42;;;;;;;8.61;91.01;99838.28;4018062;88;28549;-84
2022/11/26 05:59:53;;;;;;;43.60;22.52;;;;;;;8.55;90.34;99843.61;3965514;88;28569;-84
2022/11/26 06:05:55;;;;;;;39.73;21.30;;;;;;;8.40;89.89;99851.20;3930418;89;28567;-84
2022/11/26 06:11:56;;;;;;;40.00;21.77;;;;;;;8.23;89.99;99850.19;3932761;89;28518;-86
2022/11/26 06:17:57;;;;;;;41.00;21.75;;;;;;;7.86;90.96;99853.50;3930433;90;28493;-82
2022/11/26 06:23:59;;;;;;;43.17;23.73;;;;;;;7.94;90.14;99865.42;3926945;89;28591;-82
2022/11/26 06:30:00;;;;;;;43.48;23.70;;;;;;;7.89;91.06;99867.02;3928880;89;28518;-81
2022/11/26 06:36:04;;;;;;;41.40;23.80;;;;;;;7.88;90.51;99873.40;3900245;89;28548;-80
2022/11/26 06:42:05;;;;;;;44.35;23.05;;;;;;;8.06;89.95;99877.75;4034918;86;28527;-82
2022/11/26 06:48:06;;;;;;;46.30;24.70;;;;;;;7.99;88.67;99884.08;4073328;86;28563;-85
2022/11/26 06:54:07;;;;;;;45.75;23.77;;;;;;;8.17;88.84;99887.13;4055046;86;28623;-85
2022/11/26 07:00:11;;;;;;;44.30;23.25;;;;;;;8.39;88.16;99880.90;4077165;85;28481;-85
2022/11/26 07:06:24;;;;;;;43.68;23.25;;;;;;;8.55;86.79;99888.64;4079105;85;28499;-91
2022/11/26 07:12:26;;;;;;;41.18;23.15;;;;;;;9.22;85.96;99891.35;4058084;87;28487;-91
2022/11/26 07:18:27;;;;;;;36.77;20.82;;;;;;;9.35;85.72;99914.20;4061172;86;28509;-90
2022/11/26 07:24:28;;;;;;;39.42;20.23;;;;;;;9.55;86.77;99911.56;4048071;87;28491;-85
2022/11/26 07:30:29;;;;;;;36.70;18.05;;;;;;;9.98;85.27;99909.05;4051842;86;28481;-89
2022/11/26 07:36:31;;;;;;;35.80;20.27;;;;;;;10.13;84.76;99920.11;4059785;85;28537;-84
2022/11/26 07:42:34;;;;;;;39.45;22.37;;;;;;;10.56;82.92;99921.57;3964123;87;28642;-83
2022/11/26 07:48:38;;;;;;;41.35;22.45;;;;;;;10.88;81.61;99921.70;3943353;88;28585;-87
2022/11/26 07:54:40;;;;;;;41.10;22.52;;;;;;;11.08;81.15;99916.24;3950729;89;28570;-87
2022/11/26 08:00:41;;;;;;;43.52;23.20;;;;;;;11.46;79.99;99917.34;3995212;87;28508;-86
2022/11/26 08:06:42;;;;;;;40.40;23.47;;;;;;;11.62;78.92;99933.52;3930791;89;28566;-87
2022/11/26 08:12:44;;;;;;;37.55;20.43;;;;;;;11.73;77.84;99941.95;3936683;89;28565;-88
2022/11/26 08:18:46;;;;;;;36.13;19.67;;;;;;;11.44;79.44;99949.86;3938337;89;28577;-89
2022/11/26 08:24:49;;;;;;;38.78;20.70;;;;;;;11.73;77.18;99959.47;3966934;88;28534;-86
2022/11/26 08:30:56;;;;;;;33.18;19.25;;;;;;;11.73;79.11;99965.66;3968839;88;28537;-84
2022/11/26 08:36:57;;;;;;;35.85;20.95;;;;;;;11.69;79.56;99959.06;3956665;88;28627;-81
2022/11/26 08:42:59;;;;;;;37.58;21.17;;;;;;;11.91;78.15;99969.51;4022538;86;28531;-83
2022/11/26 08:49:00;;;;;;;35.92;20.97;;;;;;;12.01;75.62;99969.86;4064535;87;28519;-81
2022/11/26 08:55:03;;;;;;;34.45;19.90;;;;;;;12.03;74.72;99966.95;4101009;86;28479;-83
2022/11/26 09:01:11;;;;;;;33.58;19.95;;;;;;;11.94;74.92;99974.45;4020211;87;28498;-84
2022/11/26 09:07:12;;;;;;;36.50;20.95;;;;;;;12.17;74.57;99978.47;4099913;86;28553;-89
2022/11/26 09:13:14;;;;;;;37.70;20.92;;;;;;;12.55;73.65;99983.80;4029978;87;28507;-89
2022/11/26 09:19:16;;;;;;;33.92;20.32;;;;;;;12.59;73.01;99986.04;4030353;87;28535;-89
2022/11/26 09:25:22;;;;;;;36.58;21.10;;;;;;;12.69;73.07;99995.80;4052996;86;28509;-88
2022/11/26 09:31:24;;;;;;;36.35;20.60;;;;;;;12.62;73.11;100001.77;4028245;87;28551;-84
2022/11/26 09:37:26;;;;;;;38.67;22.45;;;;;;;12.58;73.30;100003.27;4040880;87;29106;-81
2022/11/26 09:43:42;;;;;;;40.65;23.55;;;;;;;12.55;72.81;100013.47;3989322;86;28518;-82
2022/11/26 09:50:09;;;;;;;43.50;24.35;;;;;;;12.45;73.68;100013.13;4058685;86;28578;-86
2022/11/26 09:56:19;;;;;;;43.50;24.82;;;;;;;12.82;73.51;100015.10;4057440;86;28597;-88
2022/11/26 10:02:20;;;;;;;46.35;23.85;;;;;;;12.88;73.48;100007.98;4063428;86;28557;-87
2022/11/26 10:08:29;;;;;;;44.42;23.32;;;;;;;12.87;73.87;100003.64;4050351;86;28528;-87
2022/11/26 10:14:54;;;;;;;44.95;25.37;;;;;;;12.97;73.87;100012.05;4056029;86;28493;-87
2022/11/26 10:21:16;;;;;;;45.40;24.05;;;;;;;13.01;73.80;100011.89;4015835;86;28600;-83
2022/11/26 10:27:21;;;;;;;41.98;24.47;;;;;;;12.97;74.06;100006.66;3995739;88;28536;-83
2022/11/26 10:33:25;;;;;;;47.62;26.80;;;;;;;12.89;75.55;100005.59;3990222;87;28501;-85
2022/11/26 10:39:26;;;;;;;47.40;26.55;;;;;;;12.91;75.34;100002.98;3975755;87;28545;-86
2022/11/26 10:45:48;;;;;;;49.50;28.42;;;;;;;12.98;75.42;100001.55;3955177;88;28510;-85
2022/11/26 10:52:01;;;;;;;50.55;27.15;;;;;;;13.21;73.93;100006.27;3967495;89;28498;-85
2022/11/26 10:58:08;;;;;;;47.60;27.70;;;;;;;13.07;75.24;100006.97;3963834;88;28664;-81
2022/11/26 11:04:26;;;;;;;43.38;25.40;;;;;;;13.22;75.30;100007.11;3964285;88;28521;-81
2022/11/26 11:10:28;;;;;;;38.98;22.15;;;;;;;13.14;75.49;100008.24;3958670;88;28536;-86
2022/11/26 11:16:41;;;;;;;39.50;22.10;;;;;;;13.21;74.44;100011.67;3968374;88;28540;-84
2022/11/26 11:22:44;;;;;;;40.00;22.22;;;;;;;13.09;75.37;100006.21;3960914;88;28603;-83
2022/11/26 11:28:53;;;;;;;40.88;23.07;;;;;;;13.03;76.98;100008.98;3974866;88;28533;-84
2022/11/26 11:34:54;;;;;;;42.62;23.47;;;;;;;12.92;78.11;100008.67;3956925;88;28518;-82
2022/11/26 11:40:56;;;;;;;40.50;22.75;;;;;;;13.08;78.25;100000.52;3997416;86;28526;-82
2022/11/26 11:47:32;;;;;;;42.62;23.30;;;;;;;13.13;78.19;100003.89;4055090;86;28554;-82
2022/11/26 11:53:37;;;;;;;;;;;;;;;13.20;78.82;100007.87;4106157;85;28490;-83
2022/11/26 12:00:15;;;;;;;33.18;20.48;;;;;;;13.25;78.95;100013.41;4021469;87;20557;-83
2022/11/26 12:06:43;;;;;;;40.92;22.45;;;;;;;13.16;79.97;100012.89;4034311;87;28522;-83
2022/11/26 12:12:51;;;;;;;42.20;22.55;;;;;;;13.42;79.30;100012.27;4111254;85;28519;-86
2022/11/26 12:19:15;;;;;;;40.83;22.02;;;;;;;13.55;78.69;100006.47;4061493;87;28554;-83
2022/11/26 12:25:35;;;;;;;36.65;21.10;;;;;;;13.47;80.00;100012.47;4108569;86;28542;-84
2022/11/26 12:31:48;;;;;;;38.10;21.35;;;;;;;13.48;81.72;100014.11;4047161;86;28566;-84
2022/11/26 12:37:52;;;;;;;33.98;20.95;;;;;;;13.46;82.14;100018.92;4049370;86;28589;-83
2022/11/26 12:44:13;;;;;;;40.00;21.57;;;;;;;13.42;81.88;100016.87;4047688;87;28561;-83
2022/11/26 12:50:40;;;;;;;36.05;20.55;;;;;;;13.32;81.94;100017.38;4050850;86;28513;-83
2022/11/26 12:57:29;;;;;;;36.45;20.45;;;;;;;13.50;82.43;100017.41;4043411;87;28561;-83
2022/11/26 13:03:32;;;;;;;39.03;20.08;;;;;;;13.30;83.56;100009.52;4052762;87;28495;-84
2022/11/26 13:09:59;;;;;;;34.05;19.48;;;;;;;13.34;82.65;100022.05;4050036;86;28522;-84
2022/11/26 13:16:11;;;;;;;32.55;19.57;;;;;;;13.54;81.62;100016.44;3996302;87;28550;-83
2022/11/26 13:22:53;;;;;;;33.88;19.02;;;;;;;13.22;82.64;100019.27;4057230;87;28525;-84
2022/11/26 13:29:12;;;;;;;34.15;18.85;;;;;;;13.24;83.13;100023.40;4031705;86;28621;-83
2022/11/26 13:35:38;;;;;;;32.38;18.65;;;;;;;13.31;81.63;100033.28;4046025;86;28602;-83
2022/11/26 13:42:11;;;;;;;34.38;18.67;;;;;;;13.22;82.36;100036.81;4057555;85;28604;-84
2022/11/26 13:48:20;;;;;;;33.92;18.00;;;;;;;12.93;83.26;100033.77;4086554;86;28505;-83
2022/11/26 13:54:42;;;;;;;30.00;16.90;;;;;;;13.11;83.57;100038.37;4050852;87;28499;-83
2022/11/26 14:00:43;;;;;;;30.75;18.40;;;;;;;13.07;84.75;100043.41;4049438;86;28525;-84
2022/11/26 14:07:09;;;;;;;31.27;17.50;;;;;;;13.03;85.22;100041.38;4063158;86;28472;-84
2022/11/26 14:13:12;;;;;;;30.40;16.67;;;;;;;13.03;85.86;100044.89;4062129;87;28952;-83
2022/11/26 14:19:14;;;;;;;28.77;16.90;;;;;;;13.09;86.09;100044.52;4066590;86;28553;-83
2022/11/26 14:25:15;;;;;;;32.58;17.92;;;;;;;13.03;86.66;100047.59;4061257;86;28550;-84
2022/11/26 14:31:31;;;;;;;37.25;19.60;;;;;;;13.03;87.53;100040.03;4040951;86;28495;-83
2022/11/26 14:37:32;;;;;;;35.85;18.50;;;;;;;13.02;88.32;100051.34;4058777;86;28523;-84
2022/11/26 14:43:34;;;;;;;34.85;18.65;;;;;;;13.00;89.07;100048.55;4079410;86;28601;-84
2022/11/26 14:49:42;;;;;;;37.55;19.42;;;;;;;12.89;88.84;100056.87;4084728;85;28572;-84
2022/11/26 14:55:48;;;;;;;30.40;17.67;;;;;;;12.95;89.39;100061.36;4041725;86;28490;-84
2022/11/26 15:01:49;;;;;;;37.13;19.25;;;;;;;13.00;87.86;100065.59;4051602;86;28545;-83
2022/11/26 15:08:01;;;;;;;36.77;18.70;;;;;;;12.72;88.79;100071.44;4109851;85;28481;-82
2022/11/26 15:14:02;;;;;;;37.55;19.82;;;;;;;12.88;88.25;100075.46;4044466;87;28524;-82
2022/11/26 15:20:08;;;;;;;37.45;20.55;;;;;;;12.93;88.10;100079.15;4053117;86;28526;-83
2022/11/26 15:26:16;;;;;;;40.00;20.00;;;;;;;13.06;87.06;100078.18;4099816;85;28599;-84
2022/11/26 15:32:32;;;;;;;35.20;18.60;;;;;;;13.01;87.38;100083.44;4097649;86;28507;-84
2022/11/26 15:38:38;;;;;;;44.88;21.87;;;;;;;13.05;86.20;100086.52;4118256;85;28501;-85
2022/11/26 15:44:40;;;;;;;37.40;20.60;;;;;;;12.91;85.94;100088.00;4090385;85;28549;-84
2022/11/26 15:50:45;;;;;;;40.50;22.07;;;;;;;13.16;84.72;100098.45;4063078;87;28555;-85
2022/11/26 15:57:00;;;;;;;38.45;20.48;;;;;;;13.02;84.87;100097.23;4042872;87;28541;-85
2022/11/26 16:03:06;;;;;;;39.15;20.90;;;;;;;12.98;84.58;100096.03;4042404;87;28564;-86
2022/11/26 16:09:16;;;;;;;40.75;22.10;;;;;;;12.86;85.10;100101.82;3982832;88;28582;-84
2022/11/26 16:15:25;;;;;;;43.42;23.12;;;;;;;12.86;85.66;100102.66;3970005;88;28581;-85
2022/11/26 16:21:32;;;;;;;43.17;22.35;;;;;;;12.87;85.50;100110.25;3973285;88;28517;-81
2022/11/26 16:27:34;;;;;;;42.13;21.87;;;;;;;13.01;85.35;100116.34;3955503;88;28554;-82
2022/11/26 16:33:35;;;;;;;43.87;23.40;;;;;;;12.95;85.62;100122.94;3992978;88;28530;-86
2022/11/26 16:39:37;;;;;;;43.95;23.70;;;;;;;13.16;84.27;100122.75;3971168;88;28660;-85
2022/11/26 16:45:39;;;;;;;44.48;24.57;;;;;;;12.90;86.19;100131.39;4013677;87;28517;-87
2022/11/26 16:51:40;;;;;;;45.28;23.92;;;;;;;13.13;84.54;100132.14;4000091;88;28531;-88
2022/11/26 16:57:47;;;;;;;46.70;25.20;;;;;;;13.21;84.21;100129.68;4016142;87;28488;-88
2022/11/26 17:03:48;;;;;;;47.53;26.15;;;;;;;13.11;85.54;100140.45;4018174;87;28539;-82
2022/11/26 17:09:52;;;;;;;47.90;25.82;;;;;;;13.03;86.80;100146.13;4013318;87;28549;-83
2022/11/26 17:15:54;;;;;;;48.00;26.33;;;;;;;12.64;90.20;100152.11;4004204;87;28551;-86
2022/11/26 17:21:57;;;;;;;50.35;26.97;;;;;;;12.67;89.95;100154.39;4014441;87;28473;-86
2022/11/26 17:27:59;;;;;;;47.10;25.08;;;;;;;12.64;91.23;100158.34;4006075;87;28518;-84
2022/11/26 17:34:00;;;;;;;46.18;23.83;;;;;;;12.33;93.56;100167.22;4022610;87;28483;-84
2022/11/26 17:40:05;;;;;;;41.37;22.02;;;;;;;12.21;94.99;100171.12;4040912;87;28531;-84
2022/11/26 17:46:19;;;;;;;37.53;21.00;;;;;;;12.04;94.59;100176.17;4074126;86;28539;-83
2022/11/26 17:52:21;;;;;;;37.03;18.95;;;;;;;11.96;94.24;100176.67;4106181;85;28500;-84
2022/11/26 17:58:25;;;;;;;27.67;15.00;;;;;;;11.93;94.87;100181.15;4070136;87;28587;-87
2022/11/26 18:04:26;;;;;;;27.50;14.95;;;;;;;11.37;98.49;100195.95;4117670;85;28496;-87
2022/11/26 18:10:28;;;;;;;27.90;14.65;;;;;;;12.26;94.89;100192.36;4115105;85;28497;-86
2022/11/26 18:16:32;;;;;;;26.70;15.28;;;;;;;12.49;91.64;100201.80;4072790;86;28528;-86
2022/11/26 18:22:34;;;;;;;26.05;14.30;;;;;;;12.00;93.25;100207.54;4071653;86;28482;-87
2022/11/26 18:28:36;;;;;;;23.02;12.98;;;;;;;12.15;92.91;100208.36;4102570;85;28526;-87
2022/11/26 18:34:39;;;;;;;23.75;13.28;;;;;;;11.81;92.24;100211.11;4045871;86;28511;-88
2022/11/26 18:40:40;;;;;;;22.70;12.40;;;;;;;11.88;92.94;100204.38;4131819;84;28600;-89
2022/11/26 18:46:43;;;;;;;22.32;11.85;;;;;;;11.57;90.64;100204.84;4043207;86;28477;-86
2022/11/26 18:52:47;;;;;;;21.65;12.03;;;;;;;12.00;88.82;100214.28;4108600;85;28526;-89
2022/11/26 18:58:50;;;;;;;22.07;11.70;;;;;;;12.09;88.10;100221.66;4055774;86;28535;-87
2022/11/26 19:04:51;;;;;;;18.90;9.98;;;;;;;12.05;86.55;100220.95;4064349;87;28603;-89
2022/11/26 19:10:53;;;;;;;16.82;8.78;;;;;;;11.80;85.45;100230.50;4062129;86;28522;-86
2022/11/26 19:16:55;;;;;;;18.40;9.13;;;;;;;11.37;85.41;100245.23;4038955;86;28491;-82
2022/11/26 19:22:56;;;;;;;17.85;9.03;;;;;;;11.62;84.84;100254.05;4059561;86;28499;-83
2022/11/26 19:29:03;;;;;;;13.43;8.20;;;;;;;11.92;82.34;100257.66;4103181;85;28484;-85
2022/11/26 19:35:06;;;;;;;15.75;8.98;;;;;;;11.70;82.95;100270.52;4123169;85;28598;-87
2022/11/26 19:41:07;;;;;;;15.63;8.80;;;;;;;11.57;82.07;100279.42;4116678;85;28566;-86
2022/11/26 19:47:09;;;;;;;14.78;8.60;;;;;;;11.70;81.48;100294.77;4007812;86;28496;-85
2022/11/26 19:53:11;;;;;;;21.75;10.65;;;;;;;11.54;82.53;100303.55;4018168;85;28579;-84
2022/11/26 19:59:12;;;;;;;20.57;11.03;;;;;;;;;;4013424;85;28561;-85
2022/11/26 20:05:15;;;;;;;19.77;11.33;;;;;;;11.19;84.03;100310.45;4004524;87;28586;-87
2022/11/26 20:11:18;;;;;;;25.45;12.82;;;;;;;11.60;82.59;100322.63;4000609;87;28583;-84
2022/11/26 20:17:21;;;;;;;27.37;14.58;;;;;;;11.83;80.51;100320.88;4034677;85;28534;-85
2022/11/26 20:23:25;;;;;;;32.55;16.57;;;;;;;11.94;79.47;100321.59;3974862;87;28552;-84
2022/11/26 20:29:27;;;;;;;32.88;16.62;;;;;;;11.69;79.95;100318.70;3968353;88;28572;-87
2022/11/26 20:35:28;;;;;;;30.90;15.63;;;;;;;11.80;80.40;100332.05;3982198;86;28549;-85
2022/11/26 20:41:30;;;;;;;35.28;16.82;;;;;;;11.99;79.36;100336.61;3966501;87;28586;-86
2022/11/26 20:47:31;;;;;;;31.55;16.60;;;;;;;11.52;80.09;100347.91;4077508;86;28552;-82
2022/11/26 20:53:34;;;;;;;31.42;16.90;;;;;;;11.47;80.75;100356.59;4052689;86;28532;-82
2022/11/26 20:59:38;;;;;;;35.90;18.50;;;;;;;11.70;80.14;100358.07;4060030;86;28595;-83
2022/11/26 21:05:39;;;;;;;35.88;17.98;;;;;;;11.54;78.58;100341.25;4084590;86;28569;-82
2022/11/26 21:11:41;;;;;;;32.53;17.77;;;;;;;11.68;78.44;100342.64;4080111;86;28528;-81
2022/11/26 21:17:42;;;;;;;39.42;18.80;;;;;;;11.54;78.05;100348.52;4063449;86;28545;-78
2022/11/26 21:23:44;;;;;;;37.55;19.23;;;;;;;11.44;78.28;100345.70;4051183;86;28595;-82
2022/11/26 21:29:46;;;;;;;33.67;18.15;;;;;;;11.69;77.91;100345.11;4057356;86;28566;-81
2022/11/26 21:35:48;;;;;;;38.02;19.65;;;;;;;11.25;79.88;100351.38;4043344;86;28609;-83
2022/11/26 21:41:51;;;;;;;38.05;19.10;;;;;;;11.37;79.61;100354.81;4068568;86;28516;-81
2022/11/26 21:47:52;;;;;;;41.15;18.70;;;;;;;11.40;79.19;100357.94;4030428;86;28500;-81
2022/11/26 21:53:58;;;;;;;36.85;18.73;;;;;;;11.12;79.56;100358.05;4043643;87;28544;-80
2022/11/26 22:00:00;;;;;;;37.38;18.27;;;;;;;11.47;77.49;100365.18;4041664;86;28533;-81
2022/11/26 22:06:01;;;;;;;37.98;18.60;;;;;;;11.19;78.24;100375.06;4000688;87;28517;-81
2022/11/26 22:12:03;;;;;;;35.15;16.52;;;;;;;10.90;78.79;100381.58;4101495;85;28550;-79
2022/11/26 22:18:06;;;;;;;27.45;14.35;;;;;;;10.92;78.19;100388.93;4039706;86;28504;-79
2022/11/26 22:24:14;;;;;;;29.27;14.33;;;;;;;10.82;72.78;100396.85;4042739;86;28578;-80
2022/11/26 22:30:16;;;;;;;25.27;13.30;;;;;;;10.66;73.47;100401.20;4089356;85;28556;-79
2022/11/26 22:36:17;;;;;;;24.67;11.30;;;;;;;10.57;74.10;100400.54;4052657;86;28543;-79
2022/11/26 22:42:20;;;;;;;23.27;10.48;;;;;;;10.70;70.29;100405.98;4050277;86;28552;-79
2022/11/26 22:48:21;;;;;;;20.70;9.95;;;;;;;10.55;69.20;100410.14;4055009;86;28595;-79
2022/11/26 22:54:25;;;;;;;22.60;10.08;;;;;;;10.86;67.69;100404.83;4025128;86;28478;-80
2022/11/26 23:00:50;;;;;;;17.73;9.23;;;;;;;10.84;67.53;100410.12;4033211;87;28644;-79
2022/11/26 23:06:51;;;;;;;17.75;8.55;;;;;;;10.51;66.41;100416.10;4025340;87;28574;-80
2022/11/26 23:12:52;;;;;;;18.02;8.73;;;;;;;10.32;66.97;100416.58;4030538;87;28562;-80
2022/11/26 23:18:56;;;;;;;15.38;7.90;;;;;;;10.51;66.95;100414.76;4032776;87;28588;-80
2022/11/26 23:24:57;;;;;;;18.00;8.18;;;;;;;10.15;66.10;100417.88;4028097;87;28511;-80
2022/11/26 23:31:01;;;;;;;18.35;8.80;;;;;;;10.82;65.52;100406.27;4032766;86;28526;-79
2022/11/26 23:37:02;;;;;;;18.20;8.38;;;;;;;10.93;64.54;100405.39;4023027;87;28925;-83
2022/11/26 23:43:04;;;;;;;18.62;9.00;;;;;;;10.92;64.92;100407.23;4028744;87;28500;-82
2022/11/26 23:49:06;;;;;;;17.90;7.80;;;;;;;10.84;65.35;100410.12;4106098;85;28553;-82
2022/11/26 23:55:08;;;;;;;17.10;8.08;;;;;;;11.07;64.18;100418.39;4103015;85;28513;-81
